Lamont, IA (50650)

3:04 AM CST on February 24, 2017 (GMT -0600)
North Ridge CT | | Change Station
Active Advisory: Winter Weather Advisory

Elev 935 ft 42.49 °N, 91.89 °W | Updated 30 seconds ago

Rain
Rain
33.2 °F
Feels Like 28 °F
N
5.0
Wind Variable Wind from NNW
Gusts 9.0 mph

Today
High -- | Low -- °F
--% Chance of Precip.
Yesterday
High -- | Low -- °F
Precip. -- in
Pressure 29.60 in
Visibility 3.0 miles
Clouds Mostly Cloudy 900 ft
Overcast 1300 ft
Windchill 28 °F
Dew Point 31 °F
Humidity 92%
Rainfall 0.09 in
Snow Depth Not available.
6:49 AM 5:50 PM
Waning Crescent, 6% visible
METAR KOLZ 240855Z AUTO 03022G28KT 3SM -RA BKN009 OVC013 01/01 A2960 RMK AO2 P0004
Pressure 29.60 in
Visibility 3.0 miles
Clouds Mostly Cloudy 900 ft
Overcast 1300 ft
Windchill 28 °F
Dew Point 31 °F
Humidity 92%
Rainfall 0.09 in
Snow Depth Not available.
6:49 AM 5:50 PM
Waning Crescent, 6% visible
METAR KOLZ 240855Z AUTO 03022G28KT 3SM -RA BKN009 OVC013 01/01 A2960 RMK AO2 P0004

Get Your Daily Forecast Email!

Thanks for signing up!

Be on the lookout for a verification email in your inbox.

You'll start receiving the daily forecast at 8 AM.

×

10-Day Weather Forecast

Almanac

Astronomy

Feb. 24, 2017 Rise Set
Actual Time
Civil Twilight
Nautical Twilight
Astronomical Twilight
Moon
Length of Visible Light
Length of Day
Tomorrow will be .
, % of the Moon is Illuminated

Today's Extremes

State Highs State Lows

Community

WunderPhotos

Upload Photos

1,962,540 photos uploaded!

WunderBlog® & News

Nearby

Air Quality

  Air Quality AQ Index Pollutant
Not available.

Snow Depth

Station Depth Elevation

Earthquake Activity

City Distance Mag. Time & Date
Minimum magnitude displayed is 2.5.

Coastal Water Temperatures

Place Temperature

Stations

Nearby Weather Stations

Station Location Temp. Windchill Dew Point Humidity Wind Precip. Elev Updated Type
                   

Watches & Warnings

Winter Weather Advisory
Issued: 8:20 PM CST Feb. 23, 2017 – National Weather Service

... Winter Weather Advisory remains in effect from 6 am Friday to
6 am CST Saturday...

* timing... early Friday morning through Friday night

* snow accumulations... 2 to 4 inches... highest in Buchanan and
Delaware counties.

* Ice accumulations... a glazing to less than 0.10 inches, mostly
on exposed and elevated surfaces.

* Wind... north 15 to 25 mph with gusts up to 35 mph.

* Temperatures... falling into the mid 20s Friday evening and into
the teens Saturday morning.

* Visibilities... less than 1 mile at times.

* Impacts... hazardous travel conditions from icy roads.

Precautionary/preparedness actions...

A Winter Weather Advisory means that periods of snow, sleet, or
freezing rain will cause travel difficulties. Be prepared for
slippery roads and limited visibilities, and use caution while
driving.